Time;durP1;ratioP1;P1;durP2;ratioP2;P2;SDS_P1;SDS_P2;PMS_P1;PMS_P2;Temp;Humidity;BMP_temperature;BMP_pressure;BME280_temperature;BME280_humidity;BME280_pressure;Samples;Min_cycle;Max_cycle;Signal;HPM_P1;HPM_P2
2022/07/08 00:00:56;;;;;;;3.25;2.95;;;18.00;99.90;;;;;;5114345;28;20332;-69
2022/07/08 00:03:23;;;;;;;3.00;2.80;;;18.00;99.90;;;;;;5114599;28;20562;-68
2022/07/08 00:05:50;;;;;;;3.90;3.10;;;18.00;99.90;;;;;;5114402;28;20288;-68
2022/07/08 00:08:18;;;;;;;3.55;3.28;;;18.00;99.90;;;;;;5114418;28;20383;-68
2022/07/08 00:10:47;;;;;;;3.22;2.92;;;18.00;99.90;;;;;;5113972;28;20239;-69
2022/07/08 00:13:14;;;;;;;6.45;2.97;;;17.90;99.90;;;;;;5114020;28;20224;-68
2022/07/08 00:15:41;;;;;;;3.38;3.08;;;18.00;99.90;;;;;;5114110;28;20575;-68
2022/07/08 00:18:07;;;;;;;3.22;2.92;;;17.90;99.90;;;;;;5114128;28;20634;-68
2022/07/08 00:20:34;;;;;;;3.85;3.40;;;17.90;99.90;;;;;;5113800;28;20312;-68
2022/07/08 00:23:01;;;;;;;3.15;2.92;;;17.90;99.90;;;;;;5113865;28;20754;-68
2022/07/08 00:25:28;;;;;;;3.40;3.13;;;17.90;99.90;;;;;;5114007;27;20292;-68
2022/07/08 00:27:56;;;;;;;4.72;4.03;;;17.90;99.80;;;;;;5115208;28;20240;-69
2022/07/08 00:30:23;;;;;;;7.18;3.72;;;17.90;98.50;;;;;;5114948;28;20766;-68
2022/07/08 00:32:50;;;;;;;4.45;4.00;;;17.80;97.00;;;;;;5115228;28;20300;-68
2022/07/08 00:35:17;;;;;;;4.60;3.78;;;17.80;96.10;;;;;;5115097;28;20317;-68
2022/07/08 00:37:44;;;;;;;6.32;5.25;;;17.90;95.90;;;;;;5115125;28;20288;-68
2022/07/08 00:40:12;;;;;;;5.85;3.90;;;17.70;95.60;;;;;;5114979;28;20289;-68
2022/07/08 00:42:39;;;;;;;5.57;4.43;;;17.80;96.00;;;;;;5114514;27;20205;-68
2022/07/08 00:45:08;;;;;;;4.90;4.30;;;17.70;95.70;;;;;;5114577;28;20284;-68
2022/07/08 00:47:35;;;;;;;4.85;4.40;;;17.70;95.50;;;;;;5114742;28;20293;-68
2022/07/08 00:50:02;;;;;;;6.90;5.10;;;17.60;95.60;;;;;;5114819;28;20302;-68
2022/07/08 00:52:29;;;;;;;6.68;4.85;;;17.60;96.00;;;;;;5114471;27;20252;-68
2022/07/08 00:54:57;;;;;;;8.25;4.75;;;17.40;95.80;;;;;;5114403;28;20226;-68
2022/07/08 00:57:24;;;;;;;5.88;5.13;;;17.30;96.20;;;;;;5114815;28;20292;-68
2022/07/08 00:59:51;;;;;;;4.72;4.32;;;17.40;96.30;;;;;;5114545;28;20727;-68
2022/07/08 01:02:19;;;;;;;6.57;5.70;;;17.40;96.40;;;;;;5114661;28;20308;-68
2022/07/08 01:04:46;;;;;;;5.63;4.90;;;17.40;96.40;;;;;;5114341;28;20201;-68
2022/07/08 01:07:13;;;;;;;5.55;4.93;;;17.40;96.50;;;;;;5114249;28;20274;-68
2022/07/08 01:09:40;;;;;;;5.28;4.78;;;17.50;96.60;;;;;;5114529;28;20288;-68
2022/07/08 01:12:08;;;;;;;6.82;5.28;;;17.30;96.60;;;;;;5114453;28;20316;-67
2022/07/08 01:14:35;;;;;;;5.72;5.22;;;17.20;96.80;;;;;;5113939;28;20746;-68
2022/07/08 01:17:02;;;;;;;6.20;5.60;;;17.20;96.80;;;;;;5114277;28;20201;-68
2022/07/08 01:19:30;;;;;;;5.22;4.72;;;17.30;96.90;;;;;;5114270;28;20292;-68
2022/07/08 01:21:58;;;;;;;9.63;5.18;;;17.40;96.70;;;;;;5114249;28;20251;-68
2022/07/08 01:24:25;;;;;;;6.28;5.65;;;17.40;96.50;;;;;;5114190;28;20284;-68
2022/07/08 01:26:52;;;;;;;4.72;4.32;;;17.30;96.50;;;;;;5114265;28;20205;-68
2022/07/08 01:29:19;;;;;;;5.85;5.25;;;17.20;96.20;;;;;;5114128;28;20291;-68
2022/07/08 01:31:51;;;;;;;5.72;5.22;;;17.20;96.40;;;;;;5114300;28;20773;-68
2022/07/08 01:34:18;;;;;;;7.40;4.88;;;17.10;96.00;;;;;;5113829;28;20224;-68
2022/07/08 01:36:45;;;;;;;4.70;4.18;;;17.00;96.30;;;;;;5113911;28;20670;-68
2022/07/08 01:39:13;;;;;;;9.70;5.25;;;16.90;96.10;;;;;;5113963;28;20292;-68
2022/07/08 01:41:40;;;;;;;5.22;4.55;;;17.00;96.40;;;;;;5114118;28;20221;-68
2022/07/08 01:44:07;;;;;;;5.28;4.40;;;17.00;95.90;;;;;;5113905;28;20585;-67
2022/07/08 01:46:34;;;;;;;5.18;4.45;;;17.00;96.00;;;;;;5114094;28;20609;-68
2022/07/08 01:49:01;;;;;;;5.30;4.60;;;17.00;95.90;;;;;;5114022;28;20287;-68
2022/07/08 01:51:28;;;;;;;5.40;4.93;;;17.00;95.70;;;;;;5114016;28;20641;-68
2022/07/08 01:53:55;;;;;;;8.43;4.65;;;16.90;95.80;;;;;;5115014;28;20307;-68
2022/07/08 01:56:23;;;;;;;4.78;4.38;;;16.80;96.00;;;;;;5118243;28;20304;-68
2022/07/08 01:58:50;;;;;;;7.15;4.63;;;16.90;95.90;;;;;;5118173;28;20205;-68
2022/07/08 02:01:17;;;;;;;5.20;4.70;;;16.90;96.10;;;;;;5118024;28;20788;-68
2022/07/08 02:03:44;;;;;;;5.70;4.95;;;16.90;96.10;;;;;;5117967;27;20292;-68
2022/07/08 02:06:11;;;;;;;4.22;3.92;;;16.90;96.20;;;;;;5117624;28;20241;-68
2022/07/08 02:08:38;;;;;;;5.72;4.60;;;16.80;95.90;;;;;;5118012;28;20288;-68
2022/07/08 02:13:51;;;;;;;6.40;4.25;;;16.50;96.30;;;;;;5117711;28;20254;-68
2022/07/08 02:16:17;;;;;;;5.55;4.90;;;16.50;97.10;;;;;;5117886;27;20291;-68
2022/07/08 02:18:44;;;;;;;5.10;4.60;;;16.40;96.60;;;;;;5117785;28;20235;-68
2022/07/08 02:21:11;;;;;;;6.22;4.25;;;16.30;97.20;;;;;;5117615;28;20335;-68
2022/07/08 02:23:38;;;;;;;5.70;5.13;;;16.30;97.10;;;;;;5117795;28;20639;-68
2022/07/08 02:26:05;;;;;;;5.35;4.53;;;16.40;97.20;;;;;;5117680;28;20236;-68
2022/07/08 02:28:32;;;;;;;4.82;4.32;;;16.40;97.20;;;;;;5117584;28;20296;-68
2022/07/08 02:31:00;;;;;;;5.10;4.47;;;16.40;97.10;;;;;;5117628;28;20588;-68
2022/07/08 02:33:27;;;;;;;5.57;4.13;;;16.40;97.10;;;;;;5117580;28;20215;-68
2022/07/08 02:35:54;;;;;;;4.50;4.10;;;16.30;97.40;;;;;;5117344;28;20277;-68
2022/07/08 02:38:21;;;;;;;5.28;4.38;;;16.20;97.50;;;;;;5117459;28;20300;-67
2022/07/08 02:40:48;;;;;;;5.75;4.85;;;16.10;97.80;;;;;;5117324;28;20222;-67
2022/07/08 02:43:15;;;;;;;5.78;4.60;;;16.10;97.70;;;;;;5117162;28;20296;-68
2022/07/08 02:45:42;;;;;;;4.65;4.20;;;15.90;98.20;;;;;;5117221;28;20284;-68
2022/07/08 02:48:10;;;;;;;5.80;4.10;;;15.80;98.40;;;;;;5117305;27;20295;-68
2022/07/08 02:50:37;;;;;;;5.60;4.68;;;15.90;98.40;;;;;;5117134;28;20260;-68
2022/07/08 02:53:04;;;;;;;4.85;4.43;;;15.80;98.80;;;;;;5116981;28;20733;-67
2022/07/08 02:55:31;;;;;;;4.95;4.25;;;15.80;98.70;;;;;;5116700;28;20316;-68
2022/07/08 02:57:57;;;;;;;6.97;4.10;;;15.80;98.90;;;;;;5117144;28;20288;-68
2022/07/08 03:00:24;;;;;;;4.82;4.07;;;15.90;98.60;;;;;;5116766;28;20208;-68
2022/07/08 03:02:51;;;;;;;5.88;4.80;;;15.80;98.90;;;;;;5117074;28;20595;-68
2022/07/08 03:05:22;;;;;;;4.47;3.95;;;15.70;98.90;;;;;;5116142;28;20239;-68
2022/07/08 03:07:49;;;;;;;4.40;3.92;;;15.70;99.10;;;;;;5116495;28;20208;-68
2022/07/08 03:10:16;;;;;;;5.03;3.70;;;15.80;99.10;;;;;;5116792;28;20240;-68
2022/07/08 03:12:43;;;;;;;4.18;3.83;;;15.80;99.30;;;;;;5116790;28;20236;-68
2022/07/08 03:15:10;;;;;;;6.97;4.20;;;15.80;99.00;;;;;;5116479;28;20310;-68
2022/07/08 03:17:37;;;;;;;4.82;4.25;;;15.70;99.20;;;;;;5116734;28;20291;-68
2022/07/08 03:20:05;;;;;;;5.50;3.75;;;15.70;99.20;;;;;;5116570;28;20212;-68
2022/07/08 03:22:33;;;;;;;5.85;4.10;;;15.60;99.50;;;;;;5116784;28;20227;-68
2022/07/08 03:25:00;;;;;;;4.32;3.90;;;15.60;99.60;;;;;;5116330;28;20207;-68
2022/07/08 03:27:27;;;;;;;5.28;4.47;;;15.60;99.50;;;;;;5116780;28;20302;-67
2022/07/08 03:29:54;;;;;;;8.52;4.00;;;15.70;99.60;;;;;;5116781;28;20295;-68
2022/07/08 03:32:22;;;;;;;5.40;4.20;;;15.70;99.70;;;;;;5116434;27;20316;-68
2022/07/08 03:34:49;;;;;;;5.97;3.97;;;15.70;99.30;;;;;;5116067;28;20224;-68
2022/07/08 03:37:16;;;;;;;7.10;4.18;;;15.70;99.80;;;;;;5116457;27;20291;-68
2022/07/08 03:39:45;;;;;;;11.27;3.60;;;15.50;99.50;;;;;;5116295;27;20231;-68
2022/07/08 03:42:10;;;;;;;5.25;4.32;;;15.60;99.90;;;;;;5116915;28;20230;-68
2022/07/08 03:44:37;;;;;;;5.73;4.10;;;15.70;99.90;;;;;;5115913;28;20562;-67
2022/07/08 03:47:05;;;;;;;5.25;4.30;;;15.80;99.80;;;;;;5116102;28;20529;-68
2022/07/08 03:49:31;;;;;;;7.00;4.30;;;15.90;99.70;;;;;;5116123;28;20287;-68
2022/07/08 03:51:58;;;;;;;4.80;4.30;;;15.90;99.60;;;;;;5115776;28;20246;-69
2022/07/08 03:54:26;;;;;;;7.53;4.22;;;15.80;99.30;;;;;;5115744;28;20634;-68
2022/07/08 03:56:54;;;;;;;5.45;3.72;;;15.80;99.40;;;;;;5116220;28;20574;-68
2022/07/08 03:59:21;;;;;;;5.50;5.00;;;15.90;99.90;;;;;;5115909;28;20300;-68
2022/07/08 04:01:48;;;;;;;4.75;3.88;;;15.90;99.40;;;;;;5115685;28;20310;-69
2022/07/08 04:04:15;;;;;;;5.97;3.88;;;15.90;99.50;;;;;;5115696;28;20299;-69
2022/07/08 04:06:42;;;;;;;5.95;4.68;;;15.80;99.20;;;;;;5115608;28;20306;-69
2022/07/08 04:09:09;;;;;;;5.65;4.20;;;15.90;99.90;;;;;;5115701;28;20374;-69
2022/07/08 04:11:36;;;;;;;6.65;4.63;;;15.90;99.90;;;;;;5115782;27;20319;-69
2022/07/08 04:14:05;;;;;;;5.20;4.15;;;15.90;99.90;;;;;;5115622;28;20205;-69
2022/07/08 04:16:32;;;;;;;6.47;4.50;;;15.80;99.90;;;;;;5114541;28;20598;-68
2022/07/08 04:18:58;;;;;;;4.70;3.88;;;15.80;99.90;;;;;;5115412;28;20295;-67
2022/07/08 04:21:25;;;;;;;6.35;4.65;;;15.80;99.90;;;;;;5115323;28;20775;-68
2022/07/08 04:23:57;;;;;;;5.60;4.22;;;15.80;99.90;;;;;;5115222;28;20207;-68
2022/07/08 04:26:28;;;;;;;4.30;3.90;;;15.70;99.90;;;;;;5115407;28;20201;-68
2022/07/08 04:28:54;;;;;;;5.82;4.20;;;15.80;99.90;;;;;;5115357;28;20594;-68
2022/07/08 04:31:23;;;;;;;4.40;3.67;;;15.90;99.90;;;;;;5114884;28;20773;-68
2022/07/08 04:33:49;;;;;;;6.15;4.15;;;15.90;99.90;;;;;;5114811;28;20717;-68
2022/07/08 04:36:16;;;;;;;5.20;4.28;;;15.80;99.70;;;;;;5115135;28;20581;-68
2022/07/08 04:38:43;;;;;;;5.97;4.20;;;15.80;99.90;;;;;;5114980;28;20204;-68
2022/07/08 04:41:10;;;;;;;5.30;3.92;;;15.90;99.90;;;;;;5114874;28;20311;-68
2022/07/08 04:43:37;;;;;;;5.38;4.10;;;15.90;99.90;;;;;;5115110;28;20295;-68
2022/07/08 04:46:04;;;;;;;4.68;4.00;;;16.00;99.90;;;;;;5114746;28;20291;-68
2022/07/08 04:48:32;;;;;;;4.88;3.80;;;16.00;99.90;;;;;;5115099;28;20288;-68
2022/07/08 04:50:59;;;;;;;6.50;3.90;;;16.00;99.20;;;;;;5114622;28;20235;-68
2022/07/08 04:53:26;;;;;;;3.75;3.42;;;15.90;98.80;;;;;;5114914;28;20206;-68
2022/07/08 04:55:53;;;;;;;4.95;4.32;;;15.90;99.80;;;;;;5114544;28;20220;-68
2022/07/08 04:58:20;;;;;;;4.55;3.97;;;15.80;99.60;;;;;;5114746;28;20236;-68
2022/07/08 05:00:47;;;;;;;4.55;4.15;;;15.70;99.90;;;;;;5114586;28;20224;-67
2022/07/08 05:03:14;;;;;;;4.85;4.32;;;15.80;99.90;;;;;;5114680;28;20210;-68
2022/07/08 05:05:42;;;;;;;5.50;4.60;;;15.80;99.90;;;;;;5114497;28;20287;-68
2022/07/08 05:08:09;;;;;;;4.78;4.38;;;15.80;99.90;;;;;;5114473;28;20304;-68
2022/07/08 05:10:36;;;;;;;5.60;3.95;;;15.80;99.80;;;;;;5114470;28;20237;-68
2022/07/08 05:13:05;;;;;;;5.70;4.30;;;15.60;99.90;;;;;;5114141;28;20733;-68
2022/07/08 05:15:32;;;;;;;5.72;4.18;;;15.50;99.90;;;;;;5114197;28;20224;-68
2022/07/08 05:17:59;;;;;;;6.00;4.13;;;15.60;99.90;;;;;;5114219;28;20290;-68
2022/07/08 05:20:26;;;;;;;5.60;4.43;;;15.60;99.90;;;;;;5114156;28;20662;-68
2022/07/08 05:22:54;;;;;;;6.93;4.78;;;15.70;99.90;;;;;;5114438;28;20295;-67
2022/07/08 05:25:21;;;;;;;4.72;4.32;;;15.70;99.90;;;;;;5114049;28;20229;-68
2022/07/08 05:27:48;;;;;;;3.97;3.55;;;15.60;99.90;;;;;;5114063;28;20566;-68
2022/07/08 05:30:15;;;;;;;4.95;4.55;;;15.70;99.90;;;;;;5114006;28;20297;-68
2022/07/08 05:32:42;;;;;;;5.07;4.15;;;15.70;99.80;;;;;;5114274;28;20294;-68
2022/07/08 05:35:10;;;;;;;4.25;3.85;;;15.80;99.90;;;;;;5113965;28;20681;-68
2022/07/08 05:37:38;;;;;;;6.45;3.83;;;15.80;99.80;;;;;;5114039;28;20215;-68
2022/07/08 05:40:08;;;;;;;6.65;3.40;;;15.80;99.00;;;;;;5114240;28;20204;-68
2022/07/08 05:42:35;;;;;;;4.20;3.45;;;15.60;98.30;;;;;;5114283;28;20727;-67
2022/07/08 05:45:03;;;;;;;5.95;3.60;;;15.50;99.30;;;;;;5113912;28;20195;-68
2022/07/08 05:47:29;;;;;;;5.18;4.57;;;15.40;99.60;;;;;;5113913;28;20626;-67
2022/07/08 05:49:56;;;;;;;4.80;3.78;;;15.40;99.90;;;;;;5114042;28;20202;-68
2022/07/08 05:52:23;;;;;;;8.52;3.53;;;15.50;99.90;;;;;;5113807;28;20226;-68
2022/07/08 05:54:50;;;;;;;5.10;3.60;;;15.60;99.90;;;;;;5113587;28;20310;-68
2022/07/08 05:57:18;;;;;;;4.70;4.30;;;15.70;99.90;;;;;;5113927;28;20290;-68
2022/07/08 05:59:46;;;;;;;6.43;4.07;;;15.70;99.10;;;;;;5114013;28;20386;-68
2022/07/08 06:02:12;;;;;;;5.50;3.70;;;15.70;99.20;;;;;;5113578;28;20220;-67
2022/07/08 06:04:39;;;;;;;3.55;3.30;;;15.70;99.40;;;;;;5113639;28;20306;-67
2022/07/08 06:07:06;;;;;;;3.70;3.30;;;15.60;98.70;;;;;;5113645;28;20246;-67
2022/07/08 06:09:33;;;;;;;3.38;3.05;;;15.60;99.30;;;;;;5113679;28;20616;-67
2022/07/08 06:12:00;;;;;;;4.13;3.72;;;15.60;98.80;;;;;;5113509;28;20705;-67
2022/07/08 06:14:28;;;;;;;6.80;3.83;;;15.60;99.10;;;;;;5113821;28;20298;-67
2022/07/08 06:16:55;;;;;;;6.05;3.83;;;15.50;99.40;;;;;;5113631;28;20267;-68
2022/07/08 06:19:22;;;;;;;3.70;3.35;;;15.50;99.40;;;;;;5113678;28;20295;-67
2022/07/08 06:21:49;;;;;;;4.55;3.38;;;15.60;99.90;;;;;;5113406;28;20224;-68
2022/07/08 06:24:16;;;;;;;8.00;4.07;;;15.70;99.90;;;;;;5113389;28;20298;-68
2022/07/08 06:26:44;;;;;;;4.18;2.92;;;15.80;99.70;;;;;;5113999;28;20219;-67
2022/07/08 06:29:11;;;;;;;4.60;3.38;;;15.80;99.30;;;;;;5113936;28;20204;-68
2022/07/08 06:31:40;;;;;;;4.05;3.17;;;15.80;98.20;;;;;;5113969;28;20328;-67
2022/07/08 06:34:07;;;;;;;3.28;2.97;;;15.80;98.80;;;;;;5113456;28;20290;-68
2022/07/08 06:36:34;;;;;;;4.53;3.50;;;15.80;99.00;;;;;;5113495;28;20315;-68
2022/07/08 06:39:01;;;;;;;7.72;3.30;;;15.90;98.60;;;;;;5113407;28;20297;-68
2022/07/08 06:41:28;;;;;;;4.28;3.25;;;16.00;98.70;;;;;;5117379;28;20755;-68
2022/07/08 06:43:55;;;;;;;2.95;2.75;;;16.00;97.90;;;;;;5117093;28;20211;-68
2022/07/08 06:46:22;;;;;;;9.35;3.13;;;15.90;97.40;;;;;;5117730;28;20291;-67
2022/07/08 06:48:51;;;;;;;4.68;3.10;;;15.90;97.90;;;;;;5116920;28;20299;-68
2022/07/08 06:51:17;;;;;;;5.40;2.72;;;16.00;97.30;;;;;;5117254;27;20647;-68
2022/07/08 06:56:28;;;;;;;2.70;2.50;;;16.30;97.20;;;;;;5117149;28;20726;-68
2022/07/08 06:58:55;;;;;;;3.88;2.40;;;16.60;96.50;;;;;;5116972;28;20292;-68
2022/07/08 07:01:22;;;;;;;5.82;3.08;;;16.80;95.10;;;;;;5116829;27;20308;-68
2022/07/08 07:03:50;;;;;;;4.00;2.50;;;17.00;94.50;;;;;;5116778;28;20296;-68
2022/07/08 07:06:17;;;;;;;3.88;2.55;;;17.10;94.10;;;;;;5116629;28;20209;-68
2022/07/08 07:08:46;;;;;;;5.72;2.45;;;17.00;93.70;;;;;;5116970;28;20292;-68
2022/07/08 07:11:13;;;;;;;2.60;2.40;;;16.80;92.90;;;;;;5116884;27;20222;-68
2022/07/08 07:13:40;;;;;;;5.75;3.03;;;16.70;93.80;;;;;;5116850;28;20288;-68
2022/07/08 07:16:08;;;;;;;2.95;2.65;;;16.80;94.10;;;;;;5116825;28;20229;-68
2022/07/08 07:18:35;;;;;;;2.88;2.50;;;16.80;94.20;;;;;;5116739;28;20284;-68
2022/07/08 07:21:04;;;;;;;3.58;2.72;;;16.90;93.60;;;;;;5116538;28;20280;-68
2022/07/08 07:23:31;;;;;;;3.30;2.45;;;17.00;93.20;;;;;;5116630;28;20288;-68
2022/07/08 07:25:57;;;;;;;3.40;2.30;;;17.20;93.00;;;;;;5116324;28;20197;-68
2022/07/08 07:28:24;;;;;;;2.90;2.50;;;17.40;92.20;;;;;;5116651;28;20207;-68
2022/07/08 07:30:51;;;;;;;2.85;2.53;;;17.40;91.80;;;;;;5116445;28;20312;-68
2022/07/08 07:33:18;;;;;;;7.20;3.00;;;17.40;91.80;;;;;;5116446;28;20244;-68
2022/07/08 07:35:45;;;;;;;4.13;2.65;;;17.40;91.60;;;;;;5116169;28;20225;-68
2022/07/08 07:38:13;;;;;;;4.65;2.60;;;17.40;91.40;;;;;;5116308;28;20292;-68
2022/07/08 07:40:40;;;;;;;2.50;2.25;;;17.40;91.10;;;;;;5116444;28;20774;-68
2022/07/08 07:43:07;;;;;;;5.53;2.22;;;17.40;91.40;;;;;;5116001;28;20303;-68
2022/07/08 07:45:34;;;;;;;4.03;2.58;;;17.40;91.30;;;;;;5116011;28;20202;-67
2022/07/08 07:48:01;;;;;;;2.90;2.08;;;17.40;91.00;;;;;;5116141;28;20284;-68
2022/07/08 07:50:28;;;;;;;3.75;2.40;;;17.40;91.50;;;;;;5116097;28;20288;-68
2022/07/08 07:52:54;;;;;;;5.88;2.60;;;17.50;91.80;;;;;;5116709;28;20292;-68
2022/07/08 07:55:23;;;;;;;3.33;2.25;;;17.60;91.50;;;;;;5115573;28;20624;-68
2022/07/08 07:57:50;;;;;;;2.55;2.25;;;17.70;90.90;;;;;;5115933;28;20632;-68
2022/07/08 08:00:18;;;;;;;3.35;2.47;;;17.80;90.80;;;;;;5115599;27;20221;-67
2022/07/08 08:02:45;;;;;;;2.40;2.00;;;18.20;90.20;;;;;;5115953;28;20297;-68
2022/07/08 08:05:13;;;;;;;3.25;2.10;;;18.60;89.00;;;;;;5115676;28;20297;-67
2022/07/08 08:07:41;;;;;;;2.30;2.10;;;18.70;88.90;;;;;;5115721;28;20243;-67
2022/07/08 08:10:09;;;;;;;3.40;2.50;;;18.80;88.20;;;;;;5115436;28;20544;-67
2022/07/08 08:12:38;;;;;;;3.20;2.58;;;18.90;87.10;;;;;;5115554;27;20218;-68
2022/07/08 08:15:06;;;;;;;4.15;2.10;;;18.70;87.30;;;;;;5115769;28;20290;-67
2022/07/08 08:17:36;;;;;;;9.10;6.43;;;18.80;87.40;;;;;;5115715;28;20308;-67
2022/07/08 08:20:05;;;;;;;5.15;2.17;;;19.00;87.00;;;;;;5115998;28;20225;-68
2022/07/08 08:22:31;;;;;;;3.40;2.55;;;18.70;82.60;;;;;;5115420;28;20308;-68
2022/07/08 08:24:58;;;;;;;5.03;2.15;;;18.30;84.90;;;;;;5115066;27;20758;-68
2022/07/08 08:27:25;;;;;;;3.13;2.35;;;18.10;85.70;;;;;;5115487;28;20289;-68
2022/07/08 08:29:54;;;;;;;3.05;2.35;;;18.10;87.40;;;;;;5115718;28;20229;-68
2022/07/08 08:32:20;;;;;;;5.28;2.47;;;18.30;85.80;;;;;;5115257;28;20650;-68
2022/07/08 08:34:47;;;;;;;2.22;1.80;;;18.50;86.20;;;;;;5115031;28;20201;-67
2022/07/08 08:37:14;;;;;;;2.25;2.08;;;18.80;85.70;;;;;;5115041;27;20316;-68
2022/07/08 08:39:41;;;;;;;2.65;2.45;;;18.80;84.30;;;;;;5115204;28;20288;-69
2022/07/08 08:42:09;;;;;;;2.67;2.47;;;18.70;86.50;;;;;;5115198;28;20265;-68
2022/07/08 08:44:35;;;;;;;3.58;2.15;;;18.60;84.50;;;;;;5114787;28;20492;-68
2022/07/08 08:47:04;;;;;;;2.42;2.15;;;18.60;84.80;;;;;;5115053;28;20240;-68
2022/07/08 08:49:35;;;;;;;2.90;2.30;;;18.80;83.60;;;;;;5114970;28;20286;-68
2022/07/08 08:52:03;;;;;;;2.60;2.40;;;19.10;82.60;;;;;;5114937;28;20226;-68
2022/07/08 08:54:34;;;;;;;4.40;2.73;;;19.50;82.10;;;;;;5114700;28;20525;-68
2022/07/08 08:57:02;;;;;;;2.90;2.17;;;19.70;79.30;;;;;;5114771;28;20477;-68
2022/07/08 08:59:30;;;;;;;4.00;3.10;;;19.80;78.90;;;;;;5114778;28;20495;-68
2022/07/08 09:01:57;;;;;;;5.10;2.50;;;20.40;80.00;;;;;;5114263;28;20497;-68
2022/07/08 09:04:26;;;;;;;4.43;3.20;;;21.60;78.60;;;;;;5114136;28;20451;-68
2022/07/08 09:06:53;;;;;;;2.43;2.20;;;21.50;73.80;;;;;;5114618;28;20870;-68
2022/07/08 09:09:20;;;;;;;2.37;2.27;;;21.00;73.00;;;;;;5114395;28;20525;-68
2022/07/08 09:11:47;;;;;;;4.17;2.50;;;20.90;76.60;;;;;;5114551;28;20504;-68
2022/07/08 09:14:16;;;;;;;2.83;2.20;;;21.10;72.50;;;;;;5114318;28;20517;-68
2022/07/08 09:17:01;;;;;;;4.50;3.70;;;22.20;70.40;;;;;;5114391;28;20474;-67
2022/07/08 09:19:29;;;;;;;3.47;3.10;;;24.10;66.10;;;;;;5114282;28;20534;-67
2022/07/08 09:21:56;;;;;;;2.20;2.00;;;26.70;59.10;;;;;;5114391;28;20553;-67
2022/07/08 09:24:23;;;;;;;4.03;2.30;;;28.80;53.60;;;;;;5114100;28;20559;-67
2022/07/08 09:26:54;;;;;;;2.47;1.93;;;30.00;48.40;;;;;;5114323;28;20473;-67
2022/07/08 09:29:21;;;;;;;4.30;1.80;;;30.30;44.60;;;;;;5114296;28;20838;-68
2022/07/08 09:31:48;;;;;;;3.77;2.20;;;30.60;45.50;;;;;;5114240;28;20476;-68
2022/07/08 09:34:16;;;;;;;2.20;2.00;;;32.00;45.00;;;;;;5114047;28;20535;-68
2022/07/08 09:36:48;;;;;;;2.63;2.43;;;30.70;42.20;;;;;;5114023;28;20556;-67
2022/07/08 09:39:25;;;;;;;3.03;2.47;;;27.80;45.80;;;;;;5114228;28;20478;-67
2022/07/08 09:41:52;;;;;;;2.70;2.47;;;26.20;49.50;;;;;;5114077;28;20462;-67
2022/07/08 09:44:20;;;;;;;3.40;2.50;;;25.50;53.50;;;;;;5113998;28;20443;-67
2022/07/08 09:46:47;;;;;;;2.50;2.10;;;26.70;51.00;;;;;;5113921;28;20932;-67
2022/07/08 09:49:28;;;;;;;2.20;2.00;;;27.10;49.40;;;;;;5114047;28;20443;-68
2022/07/08 09:51:57;;;;;;;3.40;2.80;;;27.80;47.90;;;;;;5113807;28;20459;-68
2022/07/08 09:54:24;;;;;;;2.80;2.40;;;26.50;48.80;;;;;;5113872;28;20443;-68
2022/07/08 09:56:59;;;;;;;3.40;1.80;;;24.90;51.60;;;;;;5113697;28;20475;-68
2022/07/08 09:59:26;;;;;;;2.00;1.87;;;25.10;52.60;;;;;;5113997;28;20441;-68
2022/07/08 10:01:53;;;;;;;2.30;2.07;;;25.00;52.00;;;;;;5114078;28;20561;-68
2022/07/08 10:04:20;;;;;;;2.33;2.17;;;24.40;52.60;;;;;;5113588;28;20529;-67
2022/07/08 10:06:47;;;;;;;3.80;2.17;;;24.50;53.50;;;;;;5113773;28;20542;-68
2022/07/08 10:09:15;;;;;;;2.53;2.33;;;25.50;51.40;;;;;;5113969;28;20474;-68
2022/07/08 10:11:43;;;;;;;2.60;2.23;;;26.10;50.50;;;;;;5114238;28;20494;-68
2022/07/08 10:14:11;;;;;;;2.40;2.20;;;26.30;50.90;;;;;;5114082;28;20523;-67
2022/07/08 10:16:39;;;;;;;2.73;2.03;;;25.40;50.40;;;;;;5117852;28;20556;-68
2022/07/08 10:19:11;;;;;;;3.63;2.17;;;24.30;52.50;;;;;;5117907;28;20875;-68
2022/07/08 10:21:40;;;;;;;2.90;2.60;;;24.70;52.10;;;;;;5117877;28;20463;-68
2022/07/08 10:24:10;;;;;;;1.97;1.77;;;25.80;51.30;;;;;;5117849;28;20445;-68
2022/07/08 10:26:41;;;;;;;2.23;2.03;;;27.00;50.10;;;;;;5117733;28;20441;-68
2022/07/08 10:29:09;;;;;;;2.27;1.83;;;28.70;47.70;;;;;;5117738;27;20452;-68
2022/07/08 10:31:44;;;;;;;2.80;2.07;;;28.40;46.40;;;;;;5117437;28;20871;-68
2022/07/08 10:34:12;;;;;;;3.10;2.37;;;27.90;46.50;;;;;;5117421;28;20442;-68
2022/07/08 10:36:47;;;;;;;5.10;2.73;;;27.20;47.60;;;;;;5117441;28;20557;-68
2022/07/08 10:39:15;;;;;;;3.47;2.90;;;25.70;50.00;;;;;;5117492;28;20483;-68
2022/07/08 10:42:00;;;;;;;5.13;2.50;;;25.60;51.50;;;;;;5117207;28;20545;-68
2022/07/08 10:44:48;;;;;;;2.40;2.20;;;25.30;51.60;;;;;;5117268;28;20465;-68
2022/07/08 10:47:17;;;;;;;2.57;2.30;;;24.50;52.50;;;;;;5117364;28;20440;-68
2022/07/08 10:49:44;;;;;;;4.00;2.27;;;23.40;54.00;;;;;;5117293;28;20443;-68
2022/07/08 10:52:11;;;;;;;2.40;2.17;;;23.20;56.10;;;;;;5117236;28;20551;-68
2022/07/08 10:54:38;;;;;;;2.37;2.17;;;23.20;56.00;;;;;;5116823;28;20949;-68
2022/07/08 10:57:27;;;;;;;2.70;2.00;;;23.20;55.20;;;;;;5117170;28;20557;-68
2022/07/08 11:00:11;;;;;;;2.90;2.50;;;23.10;55.00;;;;;;5117222;28;20483;-68
2022/07/08 11:02:42;;;;;;;3.23;2.40;;;22.60;57.10;;;;;;5117125;28;20545;-68
2022/07/08 11:05:40;;;;;;;2.87;2.30;;;22.70;57.20;;;;;;5116662;28;20522;-68
2022/07/08 11:08:26;;;;;;;2.90;2.13;;;22.90;57.50;;;;;;5117142;28;20984;-68
2022/07/08 11:10:55;;;;;;;2.73;2.53;;;23.00;57.80;;;;;;5116814;27;20467;-68
2022/07/08 11:13:23;;;;;;;4.03;2.13;;;23.40;57.00;;;;;;5116558;28;20538;-68
2022/07/08 11:15:50;;;;;;;3.97;2.33;;;23.60;56.80;;;;;;5116376;28;21017;-68
2022/07/08 11:18:23;;;;;;;3.43;3.17;;;23.40;56.20;;;;;;5116601;28;21018;-68
2022/07/08 11:20:51;;;;;;;3.20;2.27;;;23.60;57.60;;;;;;5116683;28;20468;-68
2022/07/08 11:23:20;;;;;;;3.13;2.10;;;23.40;54.80;;;;;;5116702;28;20534;-68
2022/07/08 11:25:47;;;;;;;2.40;2.20;;;23.20;56.90;;;;;;5116293;28;20432;-68
2022/07/08 11:28:21;;;;;;;2.23;2.03;;;23.10;56.70;;;;;;5116622;28;20525;-68
2022/07/08 11:30:48;;;;;;;4.00;2.77;;;23.40;56.90;;;;;;5116389;28;20569;-68
2022/07/08 11:33:15;;;;;;;2.60;2.40;;;23.40;57.00;;;;;;5116554;28;20526;-68
2022/07/08 11:35:42;;;;;;;2.83;2.53;;;23.40;56.30;;;;;;5116167;28;20532;-68
2022/07/08 11:38:10;;;;;;;3.07;1.80;;;23.50;55.90;;;;;;5116300;28;20834;-68
2022/07/08 11:40:44;;;;;;;1.80;1.70;;;23.40;55.60;;;;;;5116472;28;20480;-68
2022/07/08 11:43:15;;;;;;;4.40;1.87;;;23.50;56.10;;;;;;5116296;28;20439;-68
2022/07/08 11:45:42;;;;;;;4.00;2.00;;;23.60;55.90;;;;;;5115990;28;20449;-68
2022/07/08 11:48:09;;;;;;;2.20;1.60;;;23.30;55.00;;;;;;5116299;28;20435;-68
2022/07/08 11:50:38;;;;;;;2.77;1.80;;;22.90;56.10;;;;;;5116046;28;20529;-68
2022/07/08 11:53:05;;;;;;;2.57;2.00;;;22.90;57.10;;;;;;5116271;28;20451;-68
2022/07/08 11:55:45;;;;;;;2.40;2.20;;;22.60;57.10;;;;;;5116029;28;20529;-67
2022/07/08 11:58:22;;;;;;;2.40;2.20;;;22.30;57.80;;;;;;5115973;28;20570;-68
2022/07/08 12:00:48;;;;;;;4.70;2.10;;;22.40;59.60;;;;;;5115910;28;20462;-68
2022/07/08 12:03:15;;;;;;;6.03;5.00;;;22.40;58.00;;;;;;5115953;28;20534;-68
2022/07/08 12:05:42;;;;;;;3.53;2.50;;;22.70;57.20;;;;;;5115447;28;20458;-68
2022/07/08 12:08:13;;;;;;;3.53;2.73;;;22.90;57.80;;;;;;5115550;28;20539;-68
2022/07/08 12:10:41;;;;;;;2.00;1.80;;;23.10;56.90;;;;;;5115820;28;20846;-68
2022/07/08 12:13:08;;;;;;;2.80;1.63;;;23.30;55.90;;;;;;5116306;28;20491;-68
2022/07/08 12:15:36;;;;;;;2.00;1.80;;;23.50;55.50;;;;;;5115506;28;20466;-68
2022/07/08 12:18:04;;;;;;;3.83;1.90;;;23.60;55.20;;;;;;5115454;28;20564;-68
2022/07/08 12:20:32;;;;;;;3.57;2.00;;;23.60;54.00;;;;;;5115439;28;20529;-68
2022/07/08 12:22:59;;;;;;;2.77;2.23;;;23.60;55.10;;;;;;5115554;28;20509;-68
2022/07/08 12:25:26;;;;;;;2.07;1.97;;;23.30;55.20;;;;;;5115343;28;20444;-68
2022/07/08 12:28:01;;;;;;;2.10;1.90;;;22.90;55.90;;;;;;5115471;28;20526;-69
2022/07/08 12:30:29;;;;;;;2.97;2.13;;;22.60;57.20;;;;;;5115468;28;20511;-69
2022/07/08 12:33:00;;;;;;;2.27;2.10;;;22.90;57.70;;;;;;5115542;28;20530;-68
2022/07/08 12:35:33;;;;;;;2.70;1.80;;;23.00;56.90;;;;;;5114977;28;20450;-68
2022/07/08 12:38:07;;;;;;;3.20;2.20;;;22.90;56.50;;;;;;5114302;28;20486;-68
2022/07/08 12:40:38;;;;;;;4.53;2.30;;;22.80;56.50;;;;;;5115016;28;20498;-68
2022/07/08 12:43:08;;;;;;;3.10;1.67;;;22.10;57.10;;;;;;5115144;28;20443;-68
2022/07/08 12:45:35;;;;;;;2.13;1.80;;;22.20;57.90;;;;;;5115147;28;20439;-68
2022/07/08 12:48:03;;;;;;;2.07;1.87;;;22.40;58.20;;;;;;5114751;28;21007;-68
2022/07/08 12:50:31;;;;;;;2.03;1.80;;;22.70;57.40;;;;;;5114882;28;20470;-68
2022/07/08 12:52:58;;;;;;;3.77;2.10;;;22.70;56.50;;;;;;5114672;28;20454;-68
2022/07/08 12:55:25;;;;;;;2.30;2.10;;;22.90;56.70;;;;;;5114497;28;20522;-68
2022/07/08 12:57:52;;;;;;;3.50;2.07;;;22.80;56.10;;;;;;5114676;28;20938;-68